YLUW weather

Leeuwin Estate Airport
Western Australia, Australia

Public forecast

Using degrees Celsius for public forecast. Weather courtesy of forecast.io.

Closest aviation weather report (METAR) to Leeuwin Estate Airport

Closest report is Perth Jandakot Airport, 122.6 nm (227.0 km) NNE. Retrieved 2019/10/24 03:30 UTC (0 seconds ago):

YPJT 240330Z AUTO 24014KT 9999 // NCD 19/07 Q1020 RF000/0000

Closest aviation forecast (TAF) to Leeuwin Estate Airport

Closest forecast is Perth Jandakot Airport, 122.6 nm (227.0 km) NNE. Retrieved 2019-10-24 00:00 UTC (3 hours ago):

TAF YPJT 232231Z 2400/2418 19008KT 9999 SCT040 FM240200 19008KT CAVOK BECMG 2404/2406 23014KT CAVOK FM241200 18005KT 9999 FEW025